CheckWX is a tool to help pilots better visualize weather data.  It is not intended as a substitute for an official pre-flight weather briefing.

20:49:47 UTC

KLBL TAF
Liberal Mid-America Regional Airport
Liberal, Kansas, USA
KLBL 212000Z 2120/2218 02015KT P6SM SCT020 FM220000 03010KT 6SM RA OVC025 FM220300 04010KT 5SM RASN OVC015 FM220600 04008KT 3SM -SN OVC010 FM221200 VRB06KT P6SM OVC008

Nov-21@
20:00 UTC

Nov-21 @ 20:00 UTC

Nov-22@
00:00 UTC

Nov-22 @ 00:00 UTC

KLBL 212000Z 2120/2218 02015KT P6SM SCT020
Wind
  • 020° at 15 KTS
Cloud Levels
  • Scattered at 2,000' AGL

Nov-22@
00:00 UTC

Nov-22 @ 00:00 UTC

Nov-22@
03:00 UTC

Nov-22 @ 03:00 UTC

FM220000 03010KT 6SM RA OVC025

From

From Standard forecast or significant change

Wind
  • 030° at 10 KTS
Conditions
Rain
Cloud Levels
  • Overcast at 2,500' AGL

Nov-22@
03:00 UTC

Nov-22 @ 03:00 UTC

Nov-22@
06:00 UTC

Nov-22 @ 06:00 UTC

FM220300 04010KT 5SM RASN OVC015

From

From Standard forecast or significant change

Wind
  • 040° at 10 KTS
Conditions
Rain, Snow
Cloud Levels
  • Overcast at 1,500' AGL

Nov-22@
06:00 UTC

Nov-22 @ 06:00 UTC

Nov-22@
12:00 UTC

Nov-22 @ 12:00 UTC

FM220600 04008KT 3SM -SN OVC010

From

From Standard forecast or significant change

Wind
  • 040° at 8 KTS
Conditions
Light Snow
Cloud Levels
  • Overcast at 1,000' AGL

Nov-22@
12:00 UTC

Nov-22 @ 12:00 UTC

Nov-22@
18:00 UTC

Nov-22 @ 18:00 UTC

FM221200 VRB06KT P6SM OVC008

From

From Standard forecast or significant change

Wind
  • Variable at 6 KTS
Cloud Levels
  • Overcast at 800' AGL